Time;durP1;ratioP1;P1;durP2;ratioP2;P2;SDS_P1;SDS_P2;PMS_P1;PMS_P2;Temp;Humidity;BMP_temperature;BMP_pressure;BME280_temperature;BME280_humidity;BME280_pressure;Samples;Min_cycle;Max_cycle;Signal;HPM_P1;HPM_P2
2021/01/27 00:01:24;;;;;;;8.00;6.87;;;-0.60;99.90;;;;;;5072687;28;20657;-79
2021/01/27 00:03:50;;;;;;;8.48;6.07;;;-0.70;99.90;;;;;;5072577;28;20193;-79
2021/01/27 00:06:15;;;;;;;8.30;7.40;;;-0.60;99.90;;;;;;5069717;28;20189;-79
2021/01/27 00:08:41;;;;;;;9.63;8.70;;;-0.60;99.90;;;;;;5071072;28;20186;-79
2021/01/27 00:11:06;;;;;;;8.60;7.00;;;-0.60;99.90;;;;;;5068330;28;20217;-79
2021/01/27 00:13:32;;;;;;;14.93;8.37;;;-0.50;99.90;;;;;;5073170;28;20186;-79
2021/01/27 00:15:57;;;;;;;9.00;6.87;;;-0.50;99.90;;;;;;5070171;28;20244;-80
2021/01/27 00:18:23;;;;;;;10.80;6.97;;;-0.40;99.90;;;;;;5067482;28;20253;-79
2021/01/27 00:20:48;;;;;;;7.60;6.40;;;-0.40;99.90;;;;;;5072831;28;20265;-79
2021/01/27 00:23:14;;;;;;;8.33;7.27;;;-0.40;99.90;;;;;;5072720;28;20536;-79
2021/01/27 00:25:39;;;;;;;8.07;7.10;;;-0.40;99.90;;;;;;5071858;28;20178;-79
2021/01/27 00:28:07;;;;;;;9.60;7.63;;;-0.40;99.90;;;;;;5071930;28;20778;-79
2021/01/27 00:30:40;;;;;;;6.57;5.88;;;-0.40;99.90;;;;;;5064069;28;20651;-79
2021/01/27 00:33:07;;;;;;;8.85;6.53;;;-0.40;99.90;;;;;;5071117;28;20189;-79
2021/01/27 00:35:38;;;;;;;10.98;7.25;;;-0.30;99.90;;;;;;5071608;28;20587;-79
2021/01/27 00:38:14;;;;;;;9.77;7.15;;;-0.30;99.90;;;;;;5068721;28;20198;-79
2021/01/27 00:40:40;;;;;;;8.82;6.93;;;-0.30;99.90;;;;;;5066246;28;20718;-79
2021/01/27 00:43:06;;;;;;;7.50;5.53;;;-0.40;99.90;;;;;;5072364;28;20186;-79
2021/01/27 00:45:31;;;;;;;8.57;6.67;;;-0.40;99.90;;;;;;5068338;28;20194;-80
2021/01/27 00:47:57;;;;;;;7.93;6.73;;;-0.40;99.90;;;;;;5066491;28;20642;-79
2021/01/27 00:50:22;;;;;;;7.77;5.70;;;-0.40;99.90;;;;;;5077793;28;20201;-80
2021/01/27 00:52:48;;;;;;;12.10;6.53;;;-0.50;99.90;;;;;;5071919;28;20665;-79
2021/01/27 00:55:19;;;;;;;9.07;6.83;;;-0.50;99.90;;;;;;5067860;28;20186;-79
2021/01/27 00:57:45;;;;;;;9.68;7.63;;;-0.50;99.90;;;;;;5070480;28;20189;-79
2021/01/27 01:00:23;;;;;;;9.87;7.70;;;-0.60;99.90;;;;;;5070074;28;20189;-79
2021/01/27 01:02:49;;;;;;;7.43;6.50;;;-0.60;99.90;;;;;;5068131;28;20556;-79
2021/01/27 01:05:27;;;;;;;12.35;6.70;;;-0.60;99.90;;;;;;5069815;28;20296;-79
2021/01/27 01:07:53;;;;;;;10.07;7.22;;;-0.60;99.90;;;;;;5066995;28;20271;-79
2021/01/27 01:10:49;;;;;;;9.40;7.10;;;-0.60;99.90;;;;;;5068862;28;20650;-79
2021/01/27 01:13:18;;;;;;;9.38;6.70;;;-0.50;99.90;;;;;;5068884;28;20194;-79
2021/01/27 01:15:43;;;;;;;9.45;6.10;;;-0.50;99.90;;;;;;5063891;28;20284;-79
2021/01/27 01:18:10;;;;;;;9.20;6.07;;;-0.40;99.90;;;;;;5065932;28;20296;-79
2021/01/27 01:20:36;;;;;;;8.38;7.13;;;-0.40;99.90;;;;;;5071034;28;20246;-79
2021/01/27 01:23:02;;;;;;;7.70;5.43;;;-0.30;99.90;;;;;;5067393;28;20677;-79
2021/01/27 01:25:32;;;;;;;9.77;6.55;;;-0.30;99.90;;;;;;5069638;28;20687;-79
2021/01/27 01:27:58;;;;;;;7.43;6.53;;;-0.20;99.90;;;;;;5070247;28;20174;-79
2021/01/27 01:30:38;;;;;;;9.40;6.25;;;-0.20;99.90;;;;;;5069972;28;20201;-79
2021/01/27 01:33:10;;;;;;;10.75;6.45;;;-0.10;99.90;;;;;;5068282;28;20240;-79
2021/01/27 01:35:37;;;;;;;8.95;6.60;;;-0.10;99.90;;;;;;5068573;28;20205;-79
2021/01/27 01:38:03;;;;;;;10.45;6.55;;;0.00;99.90;;;;;;5069839;28;20313;-79
2021/01/27 01:40:33;;;;;;;7.55;6.13;;;0.00;99.90;;;;;;5071561;28;20186;-79
2021/01/27 01:43:21;;;;;;;9.65;7.72;;;0.00;99.90;;;;;;5068772;28;20204;-79
2021/01/27 01:45:49;;;;;;;10.35;6.72;;;0.00;99.90;;;;;;5070159;28;20764;-79
2021/01/27 01:48:27;;;;;;;10.40;5.95;;;0.00;99.90;;;;;;5068504;28;20182;-79
2021/01/27 01:50:59;;;;;;;8.27;5.97;;;0.10;99.90;;;;;;5072749;28;20243;-79
2021/01/27 01:53:25;;;;;;;8.55;6.63;;;0.00;99.90;;;;;;5072371;28;20186;-79
2021/01/27 01:55:54;;;;;;;8.00;6.10;;;0.10;99.90;;;;;;5089518;28;20186;-79
2021/01/27 01:58:21;;;;;;;9.70;6.00;;;0.10;99.90;;;;;;5087412;28;20205;-79
2021/01/27 02:00:51;;;;;;;7.50;5.90;;;0.10;99.90;;;;;;5080634;28;20178;-79
2021/01/27 02:03:17;;;;;;;7.93;6.28;;;0.10;99.90;;;;;;5082576;28;20253;-80
2021/01/27 02:05:45;;;;;;;6.07;5.07;;;0.10;99.90;;;;;;5074918;28;20186;-80
2021/01/27 02:08:10;;;;;;;8.18;6.50;;;0.10;99.90;;;;;;5069731;28;20181;-79
2021/01/27 02:10:36;;;;;;;6.80;5.67;;;0.10;99.90;;;;;;5071378;28;20182;-79
2021/01/27 02:13:16;;;;;;;8.60;6.30;;;0.00;99.90;;;;;;5070539;28;20190;-79
2021/01/27 02:15:42;;;;;;;7.28;6.47;;;0.00;99.90;;;;;;5070225;28;20192;-79
2021/01/27 02:18:38;;;;;;;6.70;5.87;;;0.00;99.90;;;;;;5068692;28;20213;-79
2021/01/27 02:21:25;;;;;;;8.68;6.72;;;-0.10;99.90;;;;;;5069871;28;20277;-79
2021/01/27 02:24:27;;;;;;;8.07;6.50;;;-0.10;99.90;;;;;;5064701;28;20197;-79
2021/01/27 02:27:15;;;;;;;9.52;6.10;;;-0.20;99.90;;;;;;5068758;28;20182;-79
2021/01/27 02:30:01;;;;;;;7.10;5.35;;;-0.30;99.90;;;;;;5071297;28;20186;-79
2021/01/27 02:33:17;;;;;;;6.93;6.00;;;-0.30;99.90;;;;;;5065021;28;20189;-79
2021/01/27 02:35:55;;;;;;;9.80;6.43;;;-0.40;99.90;;;;;;5018746;28;20179;-80
2021/01/27 02:38:24;;;;;;;6.85;5.35;;;-0.40;99.90;;;;;;5012271;28;20272;-79
2021/01/27 02:40:56;;;;;;;7.53;5.50;;;-0.50;99.90;;;;;;5046623;28;20204;-79
2021/01/27 02:43:33;;;;;;;7.25;5.40;;;-0.50;99.90;;;;;;5070964;28;20268;-79
2021/01/27 02:46:29;;;;;;;6.70;5.95;;;-0.50;99.90;;;;;;5070025;28;20181;-79
2021/01/27 02:49:03;;;;;;;7.68;5.97;;;-0.50;99.90;;;;;;5071080;28;20182;-79
2021/01/27 02:51:49;;;;;;;6.05;5.40;;;-0.60;99.90;;;;;;5067119;28;20200;-79
2021/01/27 02:54:30;;;;;;;5.90;5.30;;;-0.60;99.90;;;;;;5079362;28;20193;-80
2021/01/27 02:57:12;;;;;;;5.85;5.18;;;-0.60;99.90;;;;;;5070543;28;20230;-79
2021/01/27 02:59:45;;;;;;;8.13;4.75;;;-0.60;99.90;;;;;;5072569;28;20214;-80
2021/01/27 03:02:40;;;;;;;7.15;5.30;;;-0.70;99.90;;;;;;5071275;28;20218;-79
2021/01/27 03:05:27;;;;;;;5.75;5.15;;;-0.70;99.90;;;;;;5066996;28;20200;-78
2021/01/27 03:07:58;;;;;;;9.55;5.45;;;-0.70;99.90;;;;;;5073242;28;20177;-79
2021/01/27 03:10:34;;;;;;;6.03;5.35;;;-0.70;99.90;;;;;;5072543;28;20186;-79
2021/01/27 03:13:01;;;;;;;6.22;5.35;;;-0.70;99.90;;;;;;5071581;28;20185;-80
2021/01/27 03:15:26;;;;;;;8.68;5.93;;;-0.60;99.90;;;;;;5073984;28;20551;-79
2021/01/27 03:17:57;;;;;;;6.47;5.10;;;-0.60;99.90;;;;;;5067582;28;20209;-79
2021/01/27 03:20:33;;;;;;;6.20;5.28;;;-0.60;99.90;;;;;;5078891;28;20649;-79
2021/01/27 03:23:24;;;;;;;6.10;4.85;;;-0.50;99.90;;;;;;5072911;28;20178;-80
2021/01/27 03:25:58;;;;;;;6.45;4.65;;;-0.50;99.90;;;;;;5073279;28;20185;-80
2021/01/27 03:28:31;;;;;;;5.03;4.18;;;-0.40;99.90;;;;;;5067990;28;20585;-79
2021/01/27 03:30:57;;;;;;;5.40;4.30;;;-0.40;99.90;;;;;;5074204;28;20174;-79
2021/01/27 03:33:35;;;;;;;5.82;4.68;;;-0.30;99.90;;;;;;5070882;28;20236;-79
2021/01/27 03:36:05;;;;;;;5.20;4.13;;;-0.30;99.90;;;;;;5066494;28;20233;-79
2021/01/27 03:38:51;;;;;;;4.78;4.38;;;-0.30;99.90;;;;;;5069093;28;20252;-79
2021/01/27 03:41:22;;;;;;;5.20;3.92;;;-0.30;99.90;;;;;;5072265;28;20189;-79
2021/01/27 03:44:05;;;;;;;4.68;4.15;;;-0.20;99.90;;;;;;5068503;28;20270;-79
2021/01/27 03:46:36;;;;;;;6.07;4.78;;;-0.20;99.90;;;;;;5071667;28;20543;-79
2021/01/27 03:49:08;;;;;;;6.30;4.82;;;-0.20;99.90;;;;;;5066422;28;20182;-79
2021/01/27 03:51:42;;;;;;;4.50;3.80;;;-0.20;99.90;;;;;;5073177;28;20196;-79
2021/01/27 03:54:13;;;;;;;6.60;4.30;;;-0.10;99.90;;;;;;5070471;28;20255;-79
2021/01/27 03:56:47;;;;;;;7.47;5.15;;;-0.10;99.90;;;;;;5067695;28;20243;-79
2021/01/27 03:59:13;;;;;;;6.32;5.00;;;-0.10;99.90;;;;;;5072824;28;20573;-79
2021/01/27 04:01:47;;;;;;;5.30;4.17;;;-0.10;99.90;;;;;;5070944;28;20217;-79
2021/01/27 04:04:13;;;;;;;7.05;4.28;;;-0.10;99.90;;;;;;5068404;28;20540;-79
2021/01/27 04:06:40;;;;;;;5.47;4.30;;;-0.10;99.90;;;;;;5068918;28;20705;-79
2021/01/27 04:09:06;;;;;;;5.70;4.78;;;-0.10;99.90;;;;;;5069438;28;20207;-79
2021/01/27 04:11:31;;;;;;;4.90;4.40;;;0.00;99.90;;;;;;5071362;28;20565;-79
2021/01/27 04:13:56;;;;;;;8.50;5.20;;;0.00;99.90;;;;;;5072881;28;20218;-79
2021/01/27 04:16:22;;;;;;;5.67;4.80;;;0.00;99.90;;;;;;5070224;28;20186;-79
2021/01/27 04:18:48;;;;;;;6.50;4.50;;;0.10;99.90;;;;;;5068799;28;20225;-79
2021/01/27 04:21:13;;;;;;;5.07;4.30;;;0.10;99.90;;;;;;5073396;28;20733;-79
2021/01/27 04:23:39;;;;;;;5.83;5.23;;;0.20;99.90;;;;;;5072299;28;20186;-79
2021/01/27 04:26:04;;;;;;;6.00;4.93;;;0.20;99.90;;;;;;5071299;28;20273;-79
2021/01/27 04:28:30;;;;;;;5.53;5.00;;;0.20;99.90;;;;;;5072947;28;20208;-79
2021/01/27 04:30:55;;;;;;;6.70;4.80;;;0.30;99.90;;;;;;5071072;28;20181;-79
2021/01/27 04:33:21;;;;;;;6.63;4.97;;;0.30;99.90;;;;;;5067984;28;20232;-79
2021/01/27 04:35:46;;;;;;;4.57;4.13;;;0.40;99.90;;;;;;5070509;28;20277;-79
2021/01/27 04:38:12;;;;;;;5.63;4.50;;;0.40;99.90;;;;;;5067235;28;20210;-79
2021/01/27 04:40:43;;;;;;;6.27;4.30;;;0.40;99.90;;;;;;5090905;28;20245;-79
2021/01/27 04:43:27;;;;;;;6.20;4.88;;;0.40;99.90;;;;;;5093527;28;20201;-80
2021/01/27 04:46:07;;;;;;;4.55;4.13;;;0.50;99.90;;;;;;5082750;28;20185;-79
2021/01/27 04:48:45;;;;;;;5.38;4.53;;;0.50;99.90;;;;;;5080371;28;20189;-79
2021/01/27 04:51:16;;;;;;;8.43;6.05;;;0.50;99.90;;;;;;5070565;28;20190;-79
2021/01/27 04:54:01;;;;;;;10.05;6.25;;;0.40;99.90;;;;;;5070131;28;20224;-79
2021/01/27 04:56:45;;;;;;;8.55;5.53;;;0.50;99.90;;;;;;5067581;28;20193;-79
2021/01/27 04:59:21;;;;;;;5.70;4.60;;;0.50;99.90;;;;;;5096179;28;20267;-79
2021/01/27 05:02:05;;;;;;;4.97;4.50;;;0.50;99.90;;;;;;5089805;28;20213;-79
2021/01/27 05:05:01;;;;;;;9.35;4.80;;;0.50;99.90;;;;;;5070555;28;20204;-79
2021/01/27 05:07:40;;;;;;;4.45;4.05;;;0.50;99.90;;;;;;5067766;28;20204;-79
2021/01/27 05:10:08;;;;;;;4.80;4.38;;;0.50;99.90;;;;;;5061960;28;20228;-79
2021/01/27 05:12:42;;;;;;;4.68;4.20;;;0.50;99.90;;;;;;5071582;28;20272;-79
2021/01/27 05:15:09;;;;;;;5.47;4.10;;;0.50;99.90;;;;;;5066163;28;20730;-79
2021/01/27 05:17:39;;;;;;;5.25;4.30;;;0.50;99.90;;;;;;5071989;28;20182;-79
2021/01/27 05:20:06;;;;;;;5.13;3.65;;;0.50;99.90;;;;;;5068682;28;20225;-79
2021/01/27 05:22:32;;;;;;;6.45;4.25;;;0.60;99.90;;;;;;5070763;28;20178;-79
2021/01/27 05:24:57;;;;;;;8.40;4.67;;;0.60;99.90;;;;;;5069150;28;20193;-79
2021/01/27 05:27:33;;;;;;;4.93;4.30;;;0.60;99.90;;;;;;5064017;28;20198;-79
2021/01/27 05:30:19;;;;;;;9.60;4.85;;;0.60;99.90;;;;;;5070810;28;20177;-79
2021/01/27 05:32:56;;;;;;;5.53;4.40;;;0.60;99.90;;;;;;5065708;28;20182;-79
2021/01/27 05:35:37;;;;;;;5.68;5.13;;;0.60;99.90;;;;;;5071142;28;20185;-79
2021/01/27 05:38:26;;;;;;;4.57;3.53;;;0.60;99.90;;;;;;5065815;28;20205;-79
2021/01/27 05:41:03;;;;;;;5.85;3.80;;;0.60;99.90;;;;;;5062160;28;20662;-79
2021/01/27 05:43:29;;;;;;;4.93;4.43;;;0.60;99.90;;;;;;5070847;28;20189;-79
2021/01/27 05:46:12;;;;;;;3.75;3.38;;;0.60;99.90;;;;;;5070977;28;20181;-79
2021/01/27 05:48:46;;;;;;;5.40;4.03;;;0.70;99.90;;;;;;5071205;28;20186;-79
2021/01/27 05:51:27;;;;;;;11.27;8.15;;;0.70;99.90;;;;;;5067977;28;20196;-79
2021/01/27 05:53:53;;;;;;;10.07;6.60;;;0.60;99.90;;;;;;5065587;28;20182;-80
2021/01/27 05:56:21;;;;;;;6.27;4.67;;;0.70;99.90;;;;;;5070052;28;20240;-80
2021/01/27 05:58:57;;;;;;;6.45;4.78;;;0.70;99.90;;;;;;5070725;28;20275;-80
2021/01/27 06:01:46;;;;;;;5.72;4.05;;;0.70;99.90;;;;;;5067910;28;20216;-79
2021/01/27 06:04:11;;;;;;;4.50;4.10;;;0.70;99.90;;;;;;5070462;28;20196;-79
2021/01/27 06:06:43;;;;;;;5.97;5.03;;;0.70;99.90;;;;;;5062565;28;20174;-79
2021/01/27 06:09:08;;;;;;;4.65;3.70;;;0.70;99.90;;;;;;5071823;28;20190;-77
2021/01/27 06:11:34;;;;;;;6.40;4.47;;;0.70;99.90;;;;;;5067303;28;20240;-77
2021/01/27 06:14:11;;;;;;;3.80;3.50;;;0.80;99.90;;;;;;5071189;28;20436;-77
2021/01/27 06:16:46;;;;;;;7.10;4.78;;;0.70;99.90;;;;;;5064830;28;20273;-75
2021/01/27 06:19:14;;;;;;;5.38;4.20;;;0.70;99.90;;;;;;5071233;28;20217;-76
2021/01/27 06:22:07;;;;;;;4.47;4.07;;;0.80;99.90;;;;;;5067009;28;20178;-76
2021/01/27 06:24:53;;;;;;;4.22;3.75;;;0.80;99.90;;;;;;5071201;28;20221;-76
2021/01/27 06:27:47;;;;;;;5.63;4.95;;;0.80;99.90;;;;;;5075176;28;20260;-75
2021/01/27 06:30:19;;;;;;;4.93;3.78;;;0.80;99.90;;;;;;5072599;28;20185;-75
2021/01/27 06:33:13;;;;;;;5.35;4.63;;;0.80;99.90;;;;;;5070685;28;20178;-76
2021/01/27 06:36:08;;;;;;;4.72;4.25;;;0.80;99.90;;;;;;5072607;28;20212;-76
2021/01/27 06:38:48;;;;;;;4.05;3.60;;;0.80;99.90;;;;;;5067778;28;20700;-75
2021/01/27 06:41:25;;;;;;;4.22;3.80;;;0.80;99.90;;;;;;5078542;28;20184;-76
2021/01/27 06:44:22;;;;;;;4.47;4.07;;;0.90;99.90;;;;;;5072603;28;20181;-77
2021/01/27 06:46:56;;;;;;;6.10;4.70;;;0.90;99.90;;;;;;5077777;28;20197;-76
2021/01/27 06:49:46;;;;;;;9.05;7.10;;;0.90;99.90;;;;;;5082089;28;20194;-76
2021/01/27 06:52:31;;;;;;;5.28;4.57;;;0.90;99.90;;;;;;5076058;28;20208;-76
2021/01/27 06:55:40;;;;;;;5.72;4.57;;;0.90;99.90;;;;;;5071695;28;20178;-76
2021/01/27 06:58:39;;;;;;;4.85;3.80;;;1.00;99.90;;;;;;5020966;28;20267;-77
2021/01/27 07:01:28;;;;;;;8.30;4.85;;;0.90;99.90;;;;;;5073895;28;20320;-77
2021/01/27 07:04:23;;;;;;;5.43;4.13;;;0.90;99.90;;;;;;5067804;28;20197;-77
2021/01/27 07:07:15;;;;;;;5.03;4.18;;;0.90;99.90;;;;;;5067057;28;20174;-77
2021/01/27 07:10:16;;;;;;;5.15;4.65;;;0.90;99.90;;;;;;5069393;28;20182;-77
2021/01/27 07:12:45;;;;;;;7.38;5.25;;;0.90;99.90;;;;;;5048072;28;20202;-76
2021/01/27 07:15:26;;;;;;;4.85;4.40;;;1.00;99.90;;;;;;5074426;28;20274;-77
2021/01/27 07:18:13;;;;;;;5.10;4.32;;;1.00;99.90;;;;;;5071371;28;20201;-77
2021/01/27 07:20:41;;;;;;;6.78;4.70;;;1.00;99.90;;;;;;5071752;28;20174;-77
2021/01/27 07:23:27;;;;;;;5.90;4.70;;;1.00;99.90;;;;;;5075360;28;20185;-77
2021/01/27 07:26:11;;;;;;;4.38;4.07;;;1.10;99.90;;;;;;5075383;28;20200;-77
2021/01/27 07:28:59;;;;;;;5.25;4.60;;;1.10;99.90;;;;;;5075281;28;20260;-76
2021/01/27 07:31:40;;;;;;;5.10;4.13;;;1.10;99.90;;;;;;5073483;28;20181;-77
2021/01/27 07:34:15;;;;;;;5.40;3.85;;;1.20;99.90;;;;;;5080557;28;20182;-76
2021/01/27 07:37:16;;;;;;;4.38;3.88;;;1.20;99.90;;;;;;5071157;28;20182;-76
2021/01/27 07:39:58;;;;;;;6.85;6.20;;;1.20;99.90;;;;;;5067193;28;20216;-76
2021/01/27 07:42:49;;;;;;;8.73;7.72;;;1.20;99.90;;;;;;5069305;28;20205;-78
2021/01/27 07:45:22;;;;;;;8.98;5.82;;;1.20;99.90;;;;;;5067371;28;20243;-77
2021/01/27 07:48:10;;;;;;;5.75;5.25;;;1.20;99.90;;;;;;5068820;28;20264;-76
2021/01/27 07:50:37;;;;;;;5.72;4.82;;;1.30;99.90;;;;;;5070690;28;20189;-77
2021/01/27 07:53:18;;;;;;;5.20;4.75;;;1.30;99.90;;;;;;5068188;28;20205;-77
2021/01/27 07:56:11;;;;;;;5.90;5.00;;;1.20;99.90;;;;;;5069513;28;20195;-77
2021/01/27 07:58:46;;;;;;;6.50;4.78;;;1.20;99.90;;;;;;5069727;28;20209;-77
2021/01/27 08:01:35;;;;;;;5.50;4.80;;;1.20;99.90;;;;;;5072700;28;20675;-77
2021/01/27 08:04:13;;;;;;;8.77;4.75;;;1.20;99.90;;;;;;5069675;28;20667;-77
2021/01/27 08:06:42;;;;;;;6.72;6.10;;;1.20;99.90;;;;;;5068700;28;20695;-77
2021/01/27 08:09:08;;;;;;;10.27;6.80;;;1.20;99.90;;;;;;5072805;28;20277;-77
2021/01/27 08:11:43;;;;;;;13.10;5.78;;;1.20;99.90;;;;;;5070453;28;20186;-77
2021/01/27 08:14:13;;;;;;;8.80;4.75;;;1.20;99.90;;;;;;5072681;28;20196;-77
2021/01/27 08:16:47;;;;;;;7.50;5.28;;;1.20;99.90;;;;;;5068309;28;20240;-76
2021/01/27 08:19:12;;;;;;;7.22;5.38;;;1.20;99.90;;;;;;5065480;28;20680;-76
2021/01/27 08:21:59;;;;;;;9.73;6.33;;;1.20;99.90;;;;;;5068511;28;20185;-76
2021/01/27 08:24:34;;;;;;;6.95;6.25;;;1.30;99.90;;;;;;5073472;28;20265;-77
2021/01/27 08:27:15;;;;;;;7.40;6.55;;;1.20;99.90;;;;;;5072418;28;20257;-77
2021/01/27 08:29:55;;;;;;;5.85;5.10;;;1.30;99.90;;;;;;5066620;28;20178;-76
2021/01/27 08:32:26;;;;;;;6.85;5.20;;;1.30;99.90;;;;;;5068199;28;20242;-76
2021/01/27 08:34:58;;;;;;;7.55;5.93;;;1.30;99.90;;;;;;5076900;28;20180;-76
2021/01/27 08:37:29;;;;;;;8.25;7.05;;;1.30;99.90;;;;;;5066685;28;20196;-77
2021/01/27 08:40:06;;;;;;;15.82;10.13;;;1.30;99.90;;;;;;5067629;28;20241;-77
2021/01/27 08:42:55;;;;;;;8.18;6.32;;;1.30;99.90;;;;;;5070748;28;20539;-77
2021/01/27 08:45:21;;;;;;;7.60;5.53;;;1.40;99.90;;;;;;5072365;28;20193;-77
2021/01/27 08:47:48;;;;;;;8.53;7.20;;;1.40;99.90;;;;;;5068799;28;20186;-77
2021/01/27 08:50:42;;;;;;;10.55;7.30;;;1.40;99.90;;;;;;5072006;28;20199;-77
2021/01/27 08:53:14;;;;;;;11.35;8.77;;;1.40;99.90;;;;;;5063619;28;20198;-77
2021/01/27 08:55:45;;;;;;;9.50;7.85;;;1.50;99.90;;;;;;5070860;28;20189;-77
2021/01/27 08:58:28;;;;;;;7.60;6.45;;;1.50;99.90;;;;;;5071670;28;20208;-77
2021/01/27 09:01:15;;;;;;;7.18;5.35;;;1.60;99.90;;;;;;5062389;28;20192;-78
2021/01/27 09:03:42;;;;;;;5.60;5.05;;;1.60;99.90;;;;;;5048373;28;20679;-76
2021/01/27 09:06:21;;;;;;;6.07;5.00;;;1.60;99.90;;;;;;5069422;28;20193;-77
2021/01/27 09:08:49;;;;;;;8.95;5.38;;;1.60;99.90;;;;;;5064334;28;20544;-76
2021/01/27 09:11:18;;;;;;;5.47;4.82;;;1.60;99.90;;;;;;5070327;28;20178;-76
2021/01/27 09:13:46;;;;;;;6.78;5.32;;;1.60;99.90;;;;;;5070366;28;20316;-76
2021/01/27 09:16:18;;;;;;;6.32;4.93;;;1.60;99.90;;;;;;5071372;28;20192;-76
2021/01/27 09:18:54;;;;;;;6.40;4.82;;;1.60;99.90;;;;;;5070578;28;20579;-76
2021/01/27 09:21:21;;;;;;;5.05;4.60;;;1.70;99.90;;;;;;5066034;28;20619;-76
2021/01/27 09:24:02;;;;;;;5.10;4.10;;;1.70;99.90;;;;;;5066927;28;20197;-77
2021/01/27 09:26:42;;;;;;;5.25;3.95;;;1.70;99.90;;;;;;5072025;28;20527;-76
2021/01/27 09:29:14;;;;;;;5.00;4.47;;;1.70;99.90;;;;;;5071936;28;20268;-76
2021/01/27 09:31:40;;;;;;;4.07;3.70;;;1.70;99.90;;;;;;5066885;28;20174;-76
2021/01/27 09:34:29;;;;;;;5.90;4.97;;;1.70;99.90;;;;;;5071000;28;20220;-76
2021/01/27 09:37:11;;;;;;;4.78;3.45;;;1.70;99.90;;;;;;5062188;28;20211;-77
2021/01/27 09:39:47;;;;;;;5.25;3.90;;;1.70;99.90;;;;;;5071111;28;20209;-76
2021/01/27 09:42:19;;;;;;;7.65;3.83;;;1.70;99.90;;;;;;5069513;28;20782;-78
2021/01/27 09:44:48;;;;;;;4.43;4.03;;;1.60;99.90;;;;;;5070938;28;20598;-78
2021/01/27 09:47:15;;;;;;;3.97;3.58;;;1.70;99.90;;;;;;5069238;28;20190;-76
2021/01/27 09:49:46;;;;;;;4.78;3.90;;;1.60;99.90;;;;;;5071790;28;20185;-76
2021/01/27 09:52:13;;;;;;;3.80;3.35;;;1.70;99.90;;;;;;5070492;28;20214;-76
2021/01/27 09:54:44;;;;;;;4.07;3.30;;;1.70;99.90;;;;;;5069274;28;20236;-76
2021/01/27 09:57:12;;;;;;;5.53;4.28;;;1.70;99.90;;;;;;5072188;28;20182;-76
2021/01/27 09:59:39;;;;;;;4.05;3.72;;;1.70;99.90;;;;;;5075275;28;20657;-76
2021/01/27 10:02:09;;;;;;;6.25;4.63;;;1.70;99.90;;;;;;5073202;28;20275;-76
2021/01/27 10:04:37;;;;;;;4.20;3.85;;;1.70;99.90;;;;;;5075712;28;20208;-76
2021/01/27 10:07:10;;;;;;;4.25;3.75;;;1.70;99.90;;;;;;5073841;28;20214;-78
2021/01/27 10:09:45;;;;;;;5.63;4.45;;;1.80;99.90;;;;;;5070427;28;20194;-76
2021/01/27 10:12:18;;;;;;;5.97;4.07;;;1.80;99.90;;;;;;5066514;28;20676;-76
2021/01/27 10:14:46;;;;;;;4.88;3.90;;;1.80;99.90;;;;;;5076093;28;20182;-75
2021/01/27 10:17:12;;;;;;;3.85;3.15;;;1.80;99.90;;;;;;5077156;28;20656;-82
2021/01/27 10:19:48;;;;;;;7.70;4.80;;;1.90;99.90;;;;;;5080180;28;20217;-76
2021/01/27 10:22:23;;;;;;;3.53;3.17;;;1.90;99.90;;;;;;5065576;28;20217;-76
2021/01/27 10:24:54;;;;;;;4.25;3.63;;;1.90;99.90;;;;;;5077995;28;20177;-76
2021/01/27 10:27:21;;;;;;;5.18;3.80;;;2.00;99.90;;;;;;5073931;28;20266;-76
2021/01/27 10:29:47;;;;;;;4.78;4.32;;;2.10;99.90;;;;;;5074660;28;20514;-76
2021/01/27 10:32:27;;;;;;;6.27;4.53;;;2.10;99.90;;;;;;5071415;28;20242;-76
2021/01/27 10:34:54;;;;;;;5.60;3.20;;;2.20;99.90;;;;;;5078710;28;20182;-75
2021/01/27 10:37:40;;;;;;;5.43;3.78;;;2.20;99.90;;;;;;5067845;28;20270;-76
2021/01/27 10:40:19;;;;;;;4.80;4.40;;;2.30;99.90;;;;;;5072400;28;20292;-76
2021/01/27 10:42:51;;;;;;;5.18;4.10;;;2.30;99.90;;;;;;5065739;28;20557;-76
2021/01/27 10:45:38;;;;;;;5.32;4.13;;;2.40;99.90;;;;;;5071873;28;20268;-84
2021/01/27 10:48:09;;;;;;;3.55;3.25;;;2.40;99.90;;;;;;5068353;28;20190;-77
2021/01/27 10:50:56;;;;;;;8.63;4.55;;;2.40;99.90;;;;;;5074926;28;20629;-76
2021/01/27 10:53:21;;;;;;;10.23;4.38;;;2.40;99.90;;;;;;5066074;28;20193;-76
2021/01/27 10:55:54;;;;;;;6.50;3.90;;;2.40;99.90;;;;;;5071347;28;20186;-76
2021/01/27 10:58:20;;;;;;;5.78;3.42;;;2.40;99.90;;;;;;5066891;28;20214;-77
2021/01/27 11:00:46;;;;;;;4.13;3.72;;;2.30;99.90;;;;;;5069791;28;20182;-76
2021/01/27 11:03:17;;;;;;;3.83;3.53;;;2.30;99.90;;;;;;5069371;28;20229;-77
2021/01/27 11:05:43;;;;;;;6.38;4.30;;;2.30;99.90;;;;;;5074200;28;20182;-76
2021/01/27 11:08:15;;;;;;;3.23;3.00;;;2.30;99.90;;;;;;5074353;28;20236;-77
2021/01/27 11:10:41;;;;;;;3.53;3.22;;;2.30;99.90;;;;;;5073772;28;20512;-77
2021/01/27 11:13:06;;;;;;;2.67;2.43;;;2.30;99.90;;;;;;5073557;28;20268;-76
2021/01/27 11:15:32;;;;;;;2.90;2.70;;;2.40;99.90;;;;;;5070958;28;20184;-76
2021/01/27 11:17:57;;;;;;;4.90;3.43;;;2.40;99.90;;;;;;5068815;28;20209;-76
2021/01/27 11:20:25;;;;;;;3.90;3.33;;;2.50;99.90;;;;;;5074020;28;20265;-76
2021/01/27 11:22:51;;;;;;;4.63;3.03;;;2.50;99.90;;;;;;5069497;28;20608;-77
2021/01/27 11:25:23;;;;;;;4.45;3.38;;;2.60;99.90;;;;;;5073109;28;20212;-76
2021/01/27 11:27:50;;;;;;;2.63;2.40;;;2.60;99.90;;;;;;5073245;28;20273;-77
2021/01/27 11:30:18;;;;;;;3.13;2.42;;;2.70;99.90;;;;;;5066508;28;20197;-77
2021/01/27 11:32:44;;;;;;;2.65;2.40;;;2.70;99.90;;;;;;5069248;28;20260;-77
2021/01/27 11:35:10;;;;;;;5.50;4.47;;;2.70;99.90;;;;;;5072743;28;20239;-76
2021/01/27 11:37:36;;;;;;;15.82;11.52;;;2.80;99.90;;;;;;5074527;28;20181;-77
2021/01/27 11:40:03;;;;;;;2.90;2.60;;;2.80;99.90;;;;;;5073143;28;20226;-77
2021/01/27 11:42:29;;;;;;;2.58;2.15;;;2.90;99.90;;;;;;5069382;28;20182;-76
2021/01/27 11:44:55;;;;;;;3.00;2.80;;;2.90;99.90;;;;;;5070086;28;20641;-76
2021/01/27 11:47:20;;;;;;;4.65;2.85;;;3.00;99.90;;;;;;5069241;28;20177;-77
2021/01/27 11:49:46;;;;;;;3.03;2.70;;;3.00;99.90;;;;;;5069339;28;20186;-77
2021/01/27 11:52:13;;;;;;;3.03;2.70;;;3.00;99.90;;;;;;5068355;28;20515;-76
2021/01/27 11:54:40;;;;;;;2.55;2.35;;;3.00;99.90;;;;;;5068537;28;20734;-76
2021/01/27 11:57:06;;;;;;;2.83;2.60;;;3.10;99.90;;;;;;5077197;28;20202;-77
2021/01/27 11:59:32;;;;;;;3.25;2.55;;;3.10;99.90;;;;;;5072325;28;20298;-77
2021/01/27 12:01:59;;;;;;;3.20;2.30;;;3.10;99.90;;;;;;5066276;28;20322;-77
2021/01/27 12:04:24;;;;;;;3.33;2.30;;;3.10;99.90;;;;;;5068381;28;20326;-76
2021/01/27 12:06:50;;;;;;;1.97;1.83;;;3.10;99.90;;;;;;5065200;28;20817;-77
2021/01/27 12:09:15;;;;;;;6.93;2.73;;;3.10;99.90;;;;;;5070434;28;20201;-77
2021/01/27 12:11:42;;;;;;;3.33;2.60;;;3.00;99.90;;;;;;5072026;28;20576;-77
2021/01/27 12:14:08;;;;;;;2.45;2.08;;;3.10;99.90;;;;;;5073072;28;20198;-77
2021/01/27 12:16:33;;;;;;;2.67;2.47;;;3.00;99.90;;;;;;5071866;28;20201;-77
2021/01/27 12:18:59;;;;;;;2.50;2.30;;;3.00;99.90;;;;;;5072918;28;20655;-77
2021/01/27 12:21:24;;;;;;;2.00;1.90;;;3.00;99.90;;;;;;5071383;28;20182;-77
2021/01/27 12:23:50;;;;;;;2.80;2.50;;;3.10;99.90;;;;;;5074539;28;20742;-77
2021/01/27 12:26:15;;;;;;;3.90;3.00;;;3.00;99.90;;;;;;5072575;28;20196;-76
2021/01/27 12:28:41;;;;;;;2.20;2.10;;;3.00;99.90;;;;;;5071086;28;20186;-77
2021/01/27 12:31:06;;;;;;;3.07;2.87;;;3.00;99.90;;;;;;5068295;28;20209;-77
2021/01/27 12:33:32;;;;;;;3.83;2.50;;;2.90;99.90;;;;;;5069790;28;20182;-77
2021/01/27 12:35:57;;;;;;;3.37;3.07;;;2.90;99.90;;;;;;5071426;28;20185;-77
2021/01/27 12:38:23;;;;;;;3.10;2.53;;;2.90;99.90;;;;;;5067568;28;20259;-77
2021/01/27 12:40:49;;;;;;;3.03;2.67;;;2.90;99.90;;;;;;5072344;28;20186;-77
2021/01/27 12:43:15;;;;;;;3.77;3.47;;;2.90;99.90;;;;;;5070854;28;20653;-77
2021/01/27 12:45:40;;;;;;;5.65;3.88;;;2.90;99.90;;;;;;5071894;28;20192;-77
2021/01/27 12:48:06;;;;;;;3.67;2.80;;;3.00;99.90;;;;;;5068438;28;20178;-77
2021/01/27 12:50:32;;;;;;;4.03;3.23;;;2.90;99.90;;;;;;5072416;28;20190;-77
2021/01/27 12:52:57;;;;;;;6.17;4.13;;;2.90;99.90;;;;;;5075227;28;20186;-79
2021/01/27 12:55:23;;;;;;;5.27;4.43;;;2.90;99.90;;;;;;5074288;28;20188;-78
2021/01/27 12:57:49;;;;;;;7.47;3.80;;;2.90;99.90;;;;;;5072076;28;20182;-77
2021/01/27 13:00:24;;;;;;;6.15;4.20;;;2.90;99.90;;;;;;5071939;28;20641;-77
2021/01/27 13:02:52;;;;;;;5.60;4.30;;;2.90;99.90;;;;;;5067568;28;20221;-77
2021/01/27 13:05:19;;;;;;;6.45;4.63;;;2.90;99.90;;;;;;5072313;28;20185;-77
2021/01/27 13:07:44;;;;;;;10.15;7.25;;;3.00;99.90;;;;;;5067352;28;20178;-77
2021/01/27 13:10:11;;;;;;;4.40;3.93;;;3.00;99.90;;;;;;5071264;28;20752;-77
2021/01/27 13:12:37;;;;;;;7.38;4.28;;;3.10;99.90;;;;;;5069371;28;20194;-77
2021/01/27 13:15:08;;;;;;;3.00;2.60;;;3.20;99.90;;;;;;5070453;28;20189;-77
2021/01/27 13:17:34;;;;;;;6.03;3.70;;;3.40;99.90;;;;;;5066856;28;20186;-77
2021/01/27 13:19:59;;;;;;;7.30;3.70;;;3.40;99.90;;;;;;5067014;28;20630;-77
2021/01/27 13:22:25;;;;;;;6.13;3.87;;;3.40;99.90;;;;;;5071362;28;20186;-77
2021/01/27 13:24:50;;;;;;;8.43;6.30;;;3.40;99.90;;;;;;5066257;28;20193;-76